Time,TemperatureF,DewpointF,PressureIn,WindDirection,WindDirectionDegrees,WindSpeedMPH,WindSpeedGustMPH,Humidity,HourlyPrecipIn,Conditions,Clouds,dailyrainin,SoftwareType,DateUTC
2013-04-25 00:09:00,54.9,50.5,29.73,South,180,4.2,-999.0,85,-99.99,,,0.00,Acu-Link.com,2013-04-25 07:09:00,
2013-04-25 00:24:00,54.7,50.3,29.74,WSW,247,4.2,-999.0,85,-99.99,,,0.00,Acu-Link.com,2013-04-25 07:24:00,
2013-04-25 00:39:00,54.3,50.2,29.74,West,270,3.2,-999.0,86,-99.99,,,0.00,Acu-Link.com,2013-04-25 07:39:00,
2013-04-25 00:54:00,54.1,50.3,29.75,ESE,112,2.7,-999.0,87,-99.99,,,0.00,Acu-Link.com,2013-04-25 07:54:00,
2013-04-25 01:09:00,53.8,50.3,29.75,SSW,202,3.2,-999.0,88,-99.99,,,0.00,Acu-Link.com,2013-04-25 08:09:00,
2013-04-25 01:25:00,53.6,50.4,29.74,SW,225,4.2,-999.0,89,-99.99,,,0.00,Acu-Link.com,2013-04-25 08:25:00,
2013-04-25 01:40:00,53.4,50.5,29.75,South,180,4.7,-999.0,90,-99.99,,,0.00,Acu-Link.com,2013-04-25 08:40:00,
2013-04-25 01:55:00,53.1,50.5,29.75,SSW,202,4.7,-999.0,91,-99.99,,,0.00,Acu-Link.com,2013-04-25 08:55:00,
2013-04-25 02:10:00,53.1,50.8,29.75,WSW,247,2.7,-999.0,92,-99.99,,,0.00,Acu-Link.com,2013-04-25 09:10:00,
2013-04-25 02:25:00,52.7,50.4,29.75,ESE,112,4.2,-999.0,92,-99.99,,,0.00,Acu-Link.com,2013-04-25 09:25:00,
2013-04-25 02:40:00,52.5,50.5,29.75,SSW,202,3.7,-999.0,93,-99.99,,,0.00,Acu-Link.com,2013-04-25 09:40:00,
2013-04-25 02:56:00,52.5,50.5,29.75,NE,45,1.7,-999.0,93,-99.99,,,0.00,Acu-Link.com,2013-04-25 09:56:00,
2013-04-25 03:11:00,52.3,50.6,29.76,SSW,202,5.8,-999.0,94,-99.99,,,0.00,Acu-Link.com,2013-04-25 10:11:00,
2013-04-25 03:26:00,52.2,50.5,29.76,SW,225,2.7,-999.0,94,-99.99,,,0.00,Acu-Link.com,2013-04-25 10:26:00,
2013-04-25 03:41:00,52.0,50.3,29.76,SW,225,2.7,-999.0,94,-99.99,,,0.00,Acu-Link.com,2013-04-25 10:41:00,
2013-04-25 03:56:00,52.0,50.3,29.77,SSE,157,1.7,-999.0,94,-99.99,,,0.00,Acu-Link.com,2013-04-25 10:56:00,
2013-04-25 04:11:00,52.0,50.3,29.78,West,270,2.2,-999.0,94,-99.99,,,0.00,Acu-Link.com,2013-04-25 11:11:00,
2013-04-25 04:26:00,51.8,50.1,29.78,West,270,1.7,-999.0,94,-99.99,,,0.00,Acu-Link.com,2013-04-25 11:26:00,
2013-04-25 04:41:00,51.8,50.1,29.78,SW,225,4.2,-999.0,94,-99.99,,,0.00,Acu-Link.com,2013-04-25 11:41:00,
2013-04-25 04:56:00,51.8,50.1,29.79,SW,225,3.2,-999.0,94,-99.99,,,0.00,Acu-Link.com,2013-04-25 11:56:00,
2013-04-25 05:12:00,51.6,49.9,29.80,SW,225,1.7,-999.0,94,-99.99,,,0.00,Acu-Link.com,2013-04-25 12:12:00,
2013-04-25 05:27:00,51.6,49.9,29.79,SSW,202,3.7,-999.0,94,-99.99,,,0.00,Acu-Link.com,2013-04-25 12:27:00,
2013-04-25 05:42:00,51.4,49.7,29.80,West,270,2.2,-999.0,94,-99.99,,,0.00,Acu-Link.com,2013-04-25 12:42:00,
2013-04-25 05:57:00,51.4,49.7,29.81,West,270,3.7,-999.0,94,-99.99,,,0.00,Acu-Link.com,2013-04-25 12:57:00,
2013-04-25 06:12:00,51.4,49.7,29.81,South,180,3.2,-999.0,94,-99.99,,,0.00,Acu-Link.com,2013-04-25 13:12:00,
2013-04-25 06:27:00,51.3,49.6,29.82,SSW,202,2.2,-999.0,94,-99.99,,,0.00,Acu-Link.com,2013-04-25 13:27:00,
2013-04-25 06:42:00,51.3,49.6,29.83,SSE,157,2.2,-999.0,94,-99.99,,,0.00,Acu-Link.com,2013-04-25 13:42:00,
2013-04-25 06:57:00,51.6,49.9,29.84,NE,45,1.7,-999.0,94,-99.99,,,0.00,Acu-Link.com,2013-04-25 13:57:00,
2013-04-25 07:12:00,52.5,50.5,29.84,SSE,157,4.7,-999.0,93,-99.99,,,0.00,Acu-Link.com,2013-04-25 14:12:00,
2013-04-25 07:28:00,53.8,50.6,29.84,SW,225,2.7,-999.0,89,-99.99,,,0.00,Acu-Link.com,2013-04-25 14:28:00,
2013-04-25 07:43:00,55.2,51.1,29.85,South,180,3.7,-999.0,86,-99.99,,,0.00,Acu-Link.com,2013-04-25 14:43:00,
2013-04-25 07:58:00,57.9,52.1,29.85,SSE,157,3.7,-999.0,81,-99.99,,,0.00,Acu-Link.com,2013-04-25 14:58:00,
2013-04-25 08:13:00,59.2,51.6,29.85,ESE,112,1.7,-999.0,76,-99.99,,,0.00,Acu-Link.com,2013-04-25 15:13:00,
2013-04-25 08:28:00,60.6,51.9,29.85,East,90,1.7,-999.0,73,-99.99,,,0.00,Acu-Link.com,2013-04-25 15:28:00,
2013-04-25 08:43:00,61.7,51.4,29.86,SSE,157,4.7,-999.0,69,-99.99,,,0.00,Acu-Link.com,2013-04-25 15:43:00,
2013-04-25 08:58:00,64.6,53.4,29.87,SSW,202,0.0,-999.0,67,-99.99,,,0.00,Acu-Link.com,2013-04-25 15:58:00,
2013-04-25 09:13:00,64.2,52.6,29.89,SSW,202,2.7,-999.0,66,-99.99,,,0.00,Acu-Link.com,2013-04-25 16:13:00,
2013-04-25 09:28:00,66.6,53.2,29.88,SSW,202,3.2,-999.0,62,-99.99,,,0.00,Acu-Link.com,2013-04-25 16:28:00,
2013-04-25 09:43:00,67.5,52.7,29.88,South,180,5.3,-999.0,59,-99.99,,,0.00,Acu-Link.com,2013-04-25 16:43:00,
2013-04-25 09:59:00,69.6,52.7,29.89,South,180,3.2,-999.0,55,-99.99,,,0.00,Acu-Link.com,2013-04-25 16:59:00,
2013-04-25 10:14:00,70.7,53.7,29.89,SSW,202,2.2,-999.0,55,-99.99,,,0.00,Acu-Link.com,2013-04-25 17:14:00,
2013-04-25 10:29:00,72.5,54.9,29.90,South,180,0.0,-999.0,54,-99.99,,,0.00,Acu-Link.com,2013-04-25 17:29:00,
2013-04-25 10:44:00,72.7,54.6,29.89,South,180,1.7,-999.0,53,-99.99,,,0.00,Acu-Link.com,2013-04-25 17:44:00,
2013-04-25 10:59:00,74.5,54.1,29.89,South,180,1.7,-999.0,49,-99.99,,,0.00,Acu-Link.com,2013-04-25 17:59:00,
2013-04-25 11:15:00,75.2,54.1,29.89,SE,135,2.2,-999.0,48,-99.99,,,0.00,Acu-Link.com,2013-04-25 18:15:00,
2013-04-25 11:30:00,75.0,55.1,29.91,West,270,0.0,-999.0,50,-99.99,,,0.00,Acu-Link.com,2013-04-25 18:30:00,
2013-04-25 11:45:00,75.7,54.6,29.90,ESE,112,4.2,-999.0,48,-99.99,,,0.00,Acu-Link.com,2013-04-25 18:45:00,
2013-04-25 12:00:00,77.9,54.2,29.89,SSW,202,2.2,-999.0,44,-99.99,,,0.00,Acu-Link.com,2013-04-25 19:00:00,
2013-04-25 12:16:00,79.3,54.8,29.87,SSW,202,2.7,-999.0,43,-99.99,,,0.00,Acu-Link.com,2013-04-25 19:16:00,
2013-04-25 12:31:00,78.4,54.7,29.87,South,180,1.7,-999.0,44,-99.99,,,0.00,Acu-Link.com,2013-04-25 19:31:00,
2013-04-25 12:46:00,79.0,53.3,29.87,ESE,112,4.7,-999.0,41,-99.99,,,0.00,Acu-Link.com,2013-04-25 19:46:00,
2013-04-25 13:01:00,78.6,54.2,29.86,SSE,157,3.2,-999.0,43,-99.99,,,0.00,Acu-Link.com,2013-04-25 20:01:00,
2013-04-25 13:16:00,80.6,54.7,29.87,SSW,202,3.7,-999.0,41,-99.99,,,0.00,Acu-Link.com,2013-04-25 20:16:00,
2013-04-25 13:31:00,79.0,54.6,29.88,SSE,157,2.7,-999.0,43,-99.99,,,0.00,Acu-Link.com,2013-04-25 20:31:00,
2013-04-25 13:46:00,78.8,54.4,29.86,SE,135,0.0,-999.0,43,-99.99,,,0.00,Acu-Link.com,2013-04-25 20:46:00,
2013-04-25 14:01:00,77.4,54.4,29.87,South,180,0.0,-999.0,45,-99.99,,,0.00,Acu-Link.com,2013-04-25 21:01:00,
2013-04-25 14:16:00,77.5,54.5,29.86,SSW,202,2.2,-999.0,45,-99.99,,,0.00,Acu-Link.com,2013-04-25 21:16:00,
2013-04-25 14:31:00,78.1,55.0,29.85,South,180,0.0,-999.0,45,-99.99,,,0.00,Acu-Link.com,2013-04-25 21:31:00,
2013-04-25 14:47:00,79.0,53.9,29.87,ESE,112,3.7,-999.0,42,-99.99,,,0.00,Acu-Link.com,2013-04-25 21:47:00,
2013-04-25 15:02:00,78.6,54.8,29.87,NE,45,2.2,-999.0,44,-99.99,,,0.00,Acu-Link.com,2013-04-25 22:02:00,
2013-04-25 15:17:00,79.9,55.4,29.86,SSW,202,2.7,-999.0,43,-99.99,,,0.00,Acu-Link.com,2013-04-25 22:17:00,
2013-04-25 15:32:00,78.4,53.4,29.85,NE,45,0.0,-999.0,42,-99.99,,,0.00,Acu-Link.com,2013-04-25 22:32:00,
2013-04-25 15:47:00,78.4,55.3,29.85,SSE,157,3.7,-999.0,45,-99.99,,,0.00,Acu-Link.com,2013-04-25 22:47:00,
2013-04-25 16:02:00,78.3,55.2,29.85,SSE,157,5.3,-999.0,45,-99.99,,,0.00,Acu-Link.com,2013-04-25 23:02:00,
2013-04-25 16:17:00,76.5,53.6,29.86,SE,135,2.2,-999.0,45,-99.99,,,0.00,Acu-Link.com,2013-04-25 23:17:00,
2013-04-25 16:32:00,75.7,54.6,29.84,ESE,112,3.2,-999.0,48,-99.99,,,0.00,Acu-Link.com,2013-04-25 23:32:00,
2013-04-25 16:47:00,75.6,54.5,29.84,NE,45,1.1,-999.0,48,-99.99,,,0.00,Acu-Link.com,2013-04-25 23:47:00,
2013-04-25 17:03:00,74.7,54.3,29.84,WNW,292,0.0,-999.0,49,-99.99,,,0.00,Acu-Link.com,2013-04-26 00:03:00,
2013-04-25 17:18:00,74.5,55.2,29.85,WNW,292,2.2,-999.0,51,-99.99,,,0.00,Acu-Link.com,2013-04-26 00:18:00,
2013-04-25 17:33:00,73.4,54.7,29.85,West,270,0.0,-999.0,52,-99.99,,,0.00,Acu-Link.com,2013-04-26 00:33:00,
2013-04-25 17:48:00,73.0,55.4,29.86,ENE,67,1.7,-999.0,54,-99.99,,,0.00,Acu-Link.com,2013-04-26 00:48:00,
2013-04-25 18:03:00,72.9,54.2,29.85,NW,315,1.7,-999.0,52,-99.99,,,0.00,Acu-Link.com,2013-04-26 01:03:00,
2013-04-25 18:18:00,72.1,54.5,29.85,South,180,2.2,-999.0,54,-99.99,,,0.00,Acu-Link.com,2013-04-26 01:18:00,
2013-04-25 18:33:00,71.6,55.1,29.86,South,180,1.1,-999.0,56,-99.99,,,0.00,Acu-Link.com,2013-04-26 01:33:00,
2013-04-25 18:48:00,71.1,55.1,29.85,South,180,0.0,-999.0,57,-99.99,,,0.00,Acu-Link.com,2013-04-26 01:48:00,
2013-04-25 19:03:00,69.8,54.8,29.86,South,180,0.0,-999.0,59,-99.99,,,0.00,Acu-Link.com,2013-04-26 02:03:00,
2013-04-25 19:19:00,68.4,54.9,29.86,SE,135,2.2,-999.0,62,-99.99,,,0.00,Acu-Link.com,2013-04-26 02:19:00,
2013-04-25 19:34:00,66.7,54.1,29.86,SE,135,1.7,-999.0,64,-99.99,,,0.00,Acu-Link.com,2013-04-26 02:34:00,
2013-04-25 19:49:00,65.7,54.0,29.88,South,180,0.0,-999.0,66,-99.99,,,0.00,Acu-Link.com,2013-04-26 02:49:00,
2013-04-25 20:04:00,64.0,53.2,29.88,East,90,2.7,-999.0,68,-99.99,,,0.00,Acu-Link.com,2013-04-26 03:04:00,
2013-04-25 20:19:00,63.1,53.2,29.88,SE,135,1.7,-999.0,70,-99.99,,,0.00,Acu-Link.com,2013-04-26 03:19:00,
2013-04-25 20:34:00,61.9,52.4,29.88,WNW,292,2.7,-999.0,71,-99.99,,,0.00,Acu-Link.com,2013-04-26 03:34:00,
2013-04-25 20:49:00,61.2,52.5,29.89,South,180,1.7,-999.0,73,-99.99,,,0.00,Acu-Link.com,2013-04-26 03:49:00,
2013-04-25 21:04:00,60.4,52.1,29.90,South,180,2.2,-999.0,74,-99.99,,,0.00,Acu-Link.com,2013-04-26 04:04:00,
2013-04-25 21:19:00,59.7,51.8,29.90,South,180,0.0,-999.0,75,-99.99,,,0.00,Acu-Link.com,2013-04-26 04:19:00,
2013-04-25 21:35:00,59.2,51.6,29.91,ESE,112,0.0,-999.0,76,-99.99,,,0.00,Acu-Link.com,2013-04-26 04:35:00,
2013-04-25 21:50:00,58.5,51.3,29.93,South,180,2.2,-999.0,77,-99.99,,,0.00,Acu-Link.com,2013-04-26 04:50:00,
2013-04-25 22:05:00,57.9,51.1,29.93,South,180,0.0,-999.0,78,-99.99,,,0.00,Acu-Link.com,2013-04-26 05:05:00,
2013-04-25 22:20:00,57.6,51.1,29.93,SSW,202,0.0,-999.0,79,-99.99,,,0.00,Acu-Link.com,2013-04-26 05:20:00,
2013-04-25 22:35:00,57.0,50.9,29.94,SE,135,0.0,-999.0,80,-99.99,,,0.00,Acu-Link.com,2013-04-26 05:35:00,
2013-04-25 22:50:00,56.5,50.7,29.95,SSE,157,0.0,-999.0,81,-99.99,,,0.00,Acu-Link.com,2013-04-26 05:50:00,
2013-04-25 23:05:00,56.1,50.7,29.95,WSW,247,1.7,-999.0,82,-99.99,,,0.00,Acu-Link.com,2013-04-26 06:05:00,
2013-04-25 23:20:00,55.9,50.8,29.95,South,180,2.7,-999.0,83,-99.99,,,0.00,Acu-Link.com,2013-04-26 06:20:00,
2013-04-25 23:35:00,55.8,51.0,29.95,WNW,292,2.2,-999.0,84,-99.99,,,0.00,Acu-Link.com,2013-04-26 06:35:00,
2013-04-25 23:51:00,55.2,51.1,29.96,East,90,2.2,-999.0,86,-99.99,,,0.00,Acu-Link.com,2013-04-26 06:51:00,